Hamnavoe — VSTY7 — position and weather

sailwx.info

Track history (hours):
 
Tides and Currents Weather Stations Pressure Air Temp Water Temp Dewpoint Dewpoint Depression Visibility Wind Speed Wind Dir Waves Ship Positions

Hamnavoe

Operator: NorthLink Orkey & Shetland Ferries Ltd

Last reported at 2020-Apr-02 21:29 UTC. Time now 2020-Apr-02 22:56 UTC.
Position N 58°58' W 003°18'.

Length 112 m; draft 4.4 m.

Type: Ship. MMSI: 235449000.

Date/timePositionNaut miles runAvg speedWind from/ knotsBaromVisibWave heightAir tempDewpointWater temp
2020-Apr-02 21:29N 58°58' W 003°18'0 0.0
2020-Apr-02 20:59N 58°58' W 003°18'2 1.2
2020-Apr-02 19:30N 58°56' W 003°15'918.1
2020-Apr-02 19:00N 58°48' W 003°08'917.1
2020-Apr-02 18:30N 58°44' W 003°22'14 4.8
2020-Apr-02 15:30N 58°58' W 003°18'0 0.0
2020-Apr-02 13:30N 58°58' W 003°18'0 0.0
2020-Apr-02 12:00N 58°58' W 003°18'0 0.0
2020-Apr-02 11:00N 58°58' W 003°18'0 0.0
2020-Apr-02 10:30N 58°58' W 003°18'0 0.0
2020-Apr-02 09:30N 58°58' W 003°18'0 0.0
2020-Apr-02 08:00N 58°58' W 003°18'0 0.0
2020-Apr-02 07:30N 58°58' W 003°18'0 0.0
2020-Apr-02 05:30N 58°58' W 003°18'0 0.0
2020-Apr-02 02:27N 58°58' W 003°18'0 0.0
2020-Apr-02 02:00N 58°58' W 003°18'0 0.0
2020-Apr-01 23:00N 58°58' W 003°18'0 0.0
2020-Apr-01 22:30N 58°58' W 003°18'0 0.0
2020-Apr-01 21:30N 58°58' W 003°18'0 0.0
2020-Apr-01 21:00N 58°58' W 003°18'10 4.2
2020-Apr-01 18:30N 58°49' W 003°28'917.9
2020-Apr-01 18:00N 58°40' W 003°31'2 2.1
2020-Apr-01 17:00N 58°38' W 003°32'918.4
2020-Apr-01 16:30N 58°47' W 003°30'13 2.1
2020-Apr-01 10:30N 58°58' W 003°18'15 6.1
2020-Apr-01 08:00N 58°44' W 003°30'714.7
2020-Apr-01 07:30N 58°37' W 003°32'22 2.3
2020-Mar-31 21:55N 58°58' W 003°18'0 0.0
2020-Mar-31 20:58N 58°58' W 003°18'0 0.0
2020-Mar-31 20:28N 58°58' W 003°18'20 8.2
2020-Mar-31 18:00N 58°39' W 003°31'8 5.5
2020-Mar-31 16:30N 58°47' W 003°29'918.5
2020-Mar-31 16:00N 58°56' W 003°25'4 0.9
2020-Mar-31 11:28N 58°58' W 003°18'0 0.0
2020-Mar-31 10:58N 58°58' W 003°18'0 0.0
2020-Mar-31 09:52N 58°58' W 003°18'0 0.0
2020-Mar-31 09:28N 58°58' W 003°18'8 8.0
2020-Mar-31 08:30N 58°52' W 003°28'1615.6
2020-Mar-31 07:30N 58°37' W 003°32'7 7.1
2020-Mar-31 06:30N 58°44' W 003°30'1510.2
2020-Mar-31 04:59N 58°58' W 003°18'0 0.0
2020-Mar-31 04:29N 58°58' W 003°18'0 0.0
2020-Mar-31 03:29N 58°58' W 003°18'0 0.0
2020-Mar-31 00:59N 58°58' W 003°18'0 0.0
2020-Mar-30 23:29N 58°58' W 003°18'0 0.0
2020-Mar-30 21:29N 58°58' W 003°18'0 0.0
2020-Mar-30 20:59N 58°58' W 003°18'22 6.4
2020-Mar-30 17:29N 58°37' W 003°32'1010.5
2020-Mar-30 16:30N 58°47' W 003°30'13 6.3
2020-Mar-30 14:30N 58°58' W 003°18'0 0.0
2020-Mar-30 14:00N 58°58' W 003°18'0 0.0
2020-Mar-30 12:00N 58°58' W 003°18'0 0.0
2020-Mar-30 10:30N 58°58' W 003°18'9 4.4
2020-Mar-30 08:30N 58°51' W 003°28'917.8
2020-Mar-30 08:00N 58°42' W 003°31'8 4.2
2020-Mar-30 06:00N 58°50' W 003°28'816.3
2020-Mar-30 05:30N 58°57' W 003°18'1 1.0
2020-Mar-30 04:29N 58°58' W 003°18'0 0.0
2020-Mar-30 01:59N 58°58' W 003°18'0 0.0
2020-Mar-30 01:29N 58°58' W 003°18'0 0.0
2020-Mar-29 22:29N 58°58' W 003°18'0 0.0
2020-Mar-29 21:29N 58°58' W 003°18'0 0.0
2020-Mar-29 20:29N 58°58' W 003°18'0 0.0
2020-Mar-29 19:30N 58°58' W 003°18'3 7.0
2020-Mar-29 19:00N 58°56' W 003°24'1716.8
2020-Mar-29 18:00N 58°40' W 003°31'3 6.7
2020-Mar-29 17:30N 58°37' W 003°32'1111.0
2020-Mar-29 16:30N 58°47' W 003°29'12 5.6
2020-Mar-29 14:25N 58°58' W 003°18'0 0.0
2020-Mar-29 13:25N 58°58' W 003°18'0 0.0
2020-Mar-29 12:43N 58°58' W 003°18'0 0.0
2020-Mar-29 12:25N 58°58' W 003°18'1111.8
2020-Mar-29 11:30N 58°49' W 003°29'6 2.4
2020-Mar-29 09:00N 58°43' W 003°30'16 3.0
2020-Mar-29 03:29N 58°58' W 003°18'0 0.0
2020-Mar-29 02:29N 58°58' W 003°18'0 0.0
2020-Mar-28 23:59N 58°58' W 003°18'0 0.0
2020-Mar-28 23:29N 58°58' W 003°18'0 0.0
2020-Mar-28 20:59N 58°58' W 003°18'11 7.3
2020-Mar-28 19:30N 58°49' W 003°31'11 2.7
2020-Mar-28 15:28N 58°58' W 003°18'12 4.0
2020-Mar-28 12:30N 58°48' W 003°29'917.3
2020-Mar-28 12:00N 58°39' W 003°31'3 5.0
2020-Mar-28 11:29N 58°37' W 003°32'22 7.5
2020-Mar-28 08:29N 58°58' W 003°18'0 0.0
2020-Mar-28 06:29N 58°58' W 003°18'0 0.0
2020-Mar-28 05:59N 58°58' W 003°18'0 0.0
2020-Mar-28 02:59N 58°58' W 003°18'0 0.0
2020-Mar-28 02:11N 58°58' W 003°18'0 0.0
2020-Mar-28 01:59N 58°58' W 003°18'0 0.0
2020-Mar-28 00:59N 58°58' W 003°18'0 0.0
2020-Mar-27 22:29N 58°58' W 003°18'0 0.0
2020-Mar-27 21:29N 58°58' W 003°18'5 1.0
2020-Mar-27 17:00N 58°56' W 003°25'5 9.1
2020-Mar-27 16:30N 58°58' W 003°18'0 0.0
2020-Mar-27 16:00N 58°58' W 003°18'0 0.0
2020-Mar-27 15:00N 58°58' W 003°18'0 0.0
2020-Mar-27 13:30N 58°58' W 003°18'0 0.0
2020-Mar-27 12:30N 58°58' W 003°18'0 0.0
2020-Mar-27 12:00N 58°58' W 003°18'0 0.0
2020-Mar-27 10:30N 58°58' W 003°18'0 0.1
2020-Mar-27 10:00N 58°58' W 003°18'2211.0
2020-Mar-27 07:58N 58°37' W 003°32'2211.1
2020-Mar-27 05:57N 58°58' W 003°18'0 0.0
2020-Mar-27 03:21N 58°58' W 003°18'0 0.0
2020-Mar-26 21:30N 58°58' W 003°18'0 0.0
2020-Mar-26 20:57N 58°58' W 003°18'22 7.5
2020-Mar-26 18:00N 58°37' W 003°32'1019.4
2020-Mar-26 17:30N 58°47' W 003°30'13 5.1
2020-Mar-26 14:59N 58°58' W 003°18'0 0.0
2020-Mar-26 13:29N 58°58' W 003°18'0 0.1
2020-Mar-26 10:01N 58°57' W 003°18'815.4
2020-Mar-26 09:30N 58°52' W 003°28'1510.1
2020-Mar-26 08:00N 58°37' W 003°32'613.0
2020-Mar-26 07:30N 58°43' W 003°30'1019.3
2020-Mar-26 07:00N 58°53' W 003°29'715.0
2020-Mar-26 06:30N 58°57' W 003°17'1 1.3
2020-Mar-26 06:00N 58°58' W 003°18'0 0.0
2020-Mar-26 05:30N 58°58' W 003°18'0 0.0
2020-Mar-26 04:30N 58°58' W 003°18'0 0.0
2020-Mar-26 03:30N 58°58' W 003°18'0 0.0
2020-Mar-25 23:00N 58°58' W 003°18'0 0.0
2020-Mar-25 20:30N 58°58' W 003°18'0 0.0
2020-Mar-25 15:26N 58°58' W 003°18'0 0.0
2020-Mar-25 13:29N 58°58' W 003°18'0 0.0
2020-Mar-25 12:59N 58°58' W 003°18'0 0.0
2020-Mar-25 10:29N 58°58' W 003°18'2211.3
2020-Mar-25 08:30N 58°37' W 003°32'0 0.0
2020-Mar-25 08:00N 58°37' W 003°32'22 8.9
2020-Mar-25 05:29N 58°58' W 003°18'0 0.0
2020-Mar-25 01:29N 58°58' W 003°18'0 0.0
2020-Mar-25 00:59N 58°58' W 003°18'0 0.0
2020-Mar-25 00:29N 58°58' W 003°18'0 0.0
2020-Mar-24 22:59N 58°58' W 003°18'0 0.0
2020-Mar-24 21:29N 58°58' W 003°18'3 2.2
2020-Mar-24 20:00N 58°56' W 003°23'917.7
2020-Mar-24 19:31N 58°48' W 003°31'1019.1
2020-Mar-24 19:00N 58°39' W 003°31'10 7.0
2020-Mar-24 17:31N 58°49' W 003°29'816.2
2020-Mar-24 17:00N 58°57' W 003°23'3 1.9
2020-Mar-24 15:30N 58°58' W 003°18'0 0.0
2020-Mar-24 14:00N 58°58' W 003°18'0 0.0
2020-Mar-24 13:30N 58°58' W 003°18'0 0.0
2020-Mar-24 12:57N 58°58' W 003°18'0 0.1
2020-Mar-24 10:00N 58°58' W 003°18'2214.8
2020-Mar-24 08:30N 58°37' W 003°32'0 0.1
2020-Mar-24 08:00N 58°37' W 003°32'815.6
2020-Mar-24 07:30N 58°44' W 003°31'15 7.3
2020-Mar-24 05:27N 58°58' W 003°18'0 0.0
2020-Mar-24 04:30N 58°58' W 003°18'0 0.0
2020-Mar-24 01:27N 58°58' W 003°18'0 0.0
2020-Mar-24 00:21N 58°58' W 003°18'0 0.0
2020-Mar-23 23:27N 58°58' W 003°18'  
Track history (hours):
 
Tides and Currents Weather Stations Pressure Air Temp Water Temp Dewpoint Dewpoint Depression Visibility Wind Speed Wind Dir Waves Ship Positions

Hamnavoe

Operator: NorthLink Orkey & Shetland Ferries Ltd

Last reported at 2020-Apr-02 21:29 UTC. Time now 2020-Apr-02 22:56 UTC.
Position N 58°58' W 003°18'.

Length 112 m; draft 4.4 m.

Type: Ship. MMSI: 235449000.

Date/timePositionNaut miles runAvg speedWind from/ knotsBaromVisibWave heightAir tempDewpointWater temp
2020-Apr-02 21:29N 58°58' W 003°18'0 0.0
2020-Apr-02 20:59N 58°58' W 003°18'2 1.2
2020-Apr-02 19:30N 58°56' W 003°15'918.1
2020-Apr-02 19:00N 58°48' W 003°08'917.1
2020-Apr-02 18:30N 58°44' W 003°22'14 4.8
2020-Apr-02 15:30N 58°58' W 003°18'0 0.0
2020-Apr-02 13:30N 58°58' W 003°18'0 0.0
2020-Apr-02 12:00N 58°58' W 003°18'0 0.0
2020-Apr-02 11:00N 58°58' W 003°18'0 0.0
2020-Apr-02 10:30N 58°58' W 003°18'0 0.0
2020-Apr-02 09:30N 58°58' W 003°18'0 0.0
2020-Apr-02 08:00N 58°58' W 003°18'0 0.0
2020-Apr-02 07:30N 58°58' W 003°18'0 0.0
2020-Apr-02 05:30N 58°58' W 003°18'0 0.0
2020-Apr-02 02:27N 58°58' W 003°18'0 0.0
2020-Apr-02 02:00N 58°58' W 003°18'0 0.0
2020-Apr-01 23:00N 58°58' W 003°18'0 0.0
2020-Apr-01 22:30N 58°58' W 003°18'0 0.0
2020-Apr-01 21:30N 58°58' W 003°18'0 0.0
2020-Apr-01 21:00N 58°58' W 003°18'10 4.2
2020-Apr-01 18:30N 58°49' W 003°28'917.9
2020-Apr-01 18:00N 58°40' W 003°31'2 2.1
2020-Apr-01 17:00N 58°38' W 003°32'918.4
2020-Apr-01 16:30N 58°47' W 003°30'13 2.1
2020-Apr-01 10:30N 58°58' W 003°18'15 6.1
2020-Apr-01 08:00N 58°44' W 003°30'714.7
2020-Apr-01 07:30N 58°37' W 003°32'22 2.3
2020-Mar-31 21:55N 58°58' W 003°18'0 0.0
2020-Mar-31 20:58N 58°58' W 003°18'0 0.0
2020-Mar-31 20:28N 58°58' W 003°18'20 8.2
2020-Mar-31 18:00N 58°39' W 003°31'8 5.5
2020-Mar-31 16:30N 58°47' W 003°29'918.5
2020-Mar-31 16:00N 58°56' W 003°25'4 0.9
2020-Mar-31 11:28N 58°58' W 003°18'0 0.0
2020-Mar-31 10:58N 58°58' W 003°18'0 0.0
2020-Mar-31 09:52N 58°58' W 003°18'0 0.0
2020-Mar-31 09:28N 58°58' W 003°18'8 8.0
2020-Mar-31 08:30N 58°52' W 003°28'1615.6
2020-Mar-31 07:30N 58°37' W 003°32'7 7.1
2020-Mar-31 06:30N 58°44' W 003°30'1510.2
2020-Mar-31 04:59N 58°58' W 003°18'0 0.0
2020-Mar-31 04:29N 58°58' W 003°18'0 0.0
2020-Mar-31 03:29N 58°58' W 003°18'0 0.0
2020-Mar-31 00:59N 58°58' W 003°18'0 0.0
2020-Mar-30 23:29N 58°58' W 003°18'0 0.0
2020-Mar-30 21:29N 58°58' W 003°18'0 0.0
2020-Mar-30 20:59N 58°58' W 003°18'22 6.4
2020-Mar-30 17:29N 58°37' W 003°32'1010.5
2020-Mar-30 16:30N 58°47' W 003°30'13 6.3
2020-Mar-30 14:30N 58°58' W 003°18'0 0.0
2020-Mar-30 14:00N 58°58' W 003°18'0 0.0
2020-Mar-30 12:00N 58°58' W 003°18'0 0.0
2020-Mar-30 10:30N 58°58' W 003°18'9 4.4
2020-Mar-30 08:30N 58°51' W 003°28'917.8
2020-Mar-30 08:00N 58°42' W 003°31'8 4.2
2020-Mar-30 06:00N 58°50' W 003°28'816.3
2020-Mar-30 05:30N 58°57' W 003°18'1 1.0
2020-Mar-30 04:29N 58°58' W 003°18'0 0.0
2020-Mar-30 01:59N 58°58' W 003°18'0 0.0
2020-Mar-30 01:29N 58°58' W 003°18'0 0.0
2020-Mar-29 22:29N 58°58' W 003°18'0 0.0
2020-Mar-29 21:29N 58°58' W 003°18'0 0.0
2020-Mar-29 20:29N 58°58' W 003°18'0 0.0
2020-Mar-29 19:30N 58°58' W 003°18'3 7.0
2020-Mar-29 19:00N 58°56' W 003°24'1716.8
2020-Mar-29 18:00N 58°40' W 003°31'3 6.7
2020-Mar-29 17:30N 58°37' W 003°32'1111.0
2020-Mar-29 16:30N 58°47' W 003°29'12 5.6
2020-Mar-29 14:25N 58°58' W 003°18'0 0.0
2020-Mar-29 13:25N 58°58' W 003°18'0 0.0
2020-Mar-29 12:43N 58°58' W 003°18'0 0.0
2020-Mar-29 12:25N 58°58' W 003°18'1111.8
2020-Mar-29 11:30N 58°49' W 003°29'6 2.4
2020-Mar-29 09:00N 58°43' W 003°30'16 3.0
2020-Mar-29 03:29N 58°58' W 003°18'0 0.0
2020-Mar-29 02:29N 58°58' W 003°18'0 0.0
2020-Mar-28 23:59N 58°58' W 003°18'0 0.0
2020-Mar-28 23:29N 58°58' W 003°18'0 0.0
2020-Mar-28 20:59N 58°58' W 003°18'11 7.3
2020-Mar-28 19:30N 58°49' W 003°31'11 2.7
2020-Mar-28 15:28N 58°58' W 003°18'12 4.0
2020-Mar-28 12:30N 58°48' W 003°29'917.3
2020-Mar-28 12:00N 58°39' W 003°31'3 5.0
2020-Mar-28 11:29N 58°37' W 003°32'22 7.5
2020-Mar-28 08:29N 58°58' W 003°18'0 0.0
2020-Mar-28 06:29N 58°58' W 003°18'0 0.0
2020-Mar-28 05:59N 58°58' W 003°18'0 0.0
2020-Mar-28 02:59N 58°58' W 003°18'0 0.0
2020-Mar-28 02:11N 58°58' W 003°18'0 0.0
2020-Mar-28 01:59N 58°58' W 003°18'0 0.0
2020-Mar-28 00:59N 58°58' W 003°18'0 0.0
2020-Mar-27 22:29N 58°58' W 003°18'0 0.0
2020-Mar-27 21:29N 58°58' W 003°18'5 1.0
2020-Mar-27 17:00N 58°56' W 003°25'5 9.1
2020-Mar-27 16:30N 58°58' W 003°18'0 0.0
2020-Mar-27 16:00N 58°58' W 003°18'0 0.0
2020-Mar-27 15:00N 58°58' W 003°18'0 0.0
2020-Mar-27 13:30N 58°58' W 003°18'0 0.0
2020-Mar-27 12:30N 58°58' W 003°18'0 0.0
2020-Mar-27 12:00N 58°58' W 003°18'0 0.0
2020-Mar-27 10:30N 58°58' W 003°18'0 0.1
2020-Mar-27 10:00N 58°58' W 003°18'2211.0
2020-Mar-27 07:58N 58°37' W 003°32'2211.1
2020-Mar-27 05:57N 58°58' W 003°18'0 0.0
2020-Mar-27 03:21N 58°58' W 003°18'0 0.0
2020-Mar-26 21:30N 58°58' W 003°18'0 0.0
2020-Mar-26 20:57N 58°58' W 003°18'22 7.5
2020-Mar-26 18:00N 58°37' W 003°32'1019.4
2020-Mar-26 17:30N 58°47' W 003°30'13 5.1
2020-Mar-26 14:59N 58°58' W 003°18'0 0.0
2020-Mar-26 13:29N 58°58' W 003°18'0 0.1
2020-Mar-26 10:01N 58°57' W 003°18'815.4
2020-Mar-26 09:30N 58°52' W 003°28'1510.1
2020-Mar-26 08:00N 58°37' W 003°32'613.0
2020-Mar-26 07:30N 58°43' W 003°30'1019.3
2020-Mar-26 07:00N 58°53' W 003°29'715.0
2020-Mar-26 06:30N 58°57' W 003°17'1 1.3
2020-Mar-26 06:00N 58°58' W 003°18'0 0.0
2020-Mar-26 05:30N 58°58' W 003°18'0 0.0
2020-Mar-26 04:30N 58°58' W 003°18'0 0.0
2020-Mar-26 03:30N 58°58' W 003°18'0 0.0
2020-Mar-25 23:00N 58°58' W 003°18'0 0.0
2020-Mar-25 20:30N 58°58' W 003°18'0 0.0
2020-Mar-25 15:26N 58°58' W 003°18'0 0.0
2020-Mar-25 13:29N 58°58' W 003°18'0 0.0
2020-Mar-25 12:59N 58°58' W 003°18'0 0.0
2020-Mar-25 10:29N 58°58' W 003°18'2211.3
2020-Mar-25 08:30N 58°37' W 003°32'0 0.0
2020-Mar-25 08:00N 58°37' W 003°32'22 8.9
2020-Mar-25 05:29N 58°58' W 003°18'0 0.0
2020-Mar-25 01:29N 58°58' W 003°18'0 0.0
2020-Mar-25 00:59N 58°58' W 003°18'0 0.0
2020-Mar-25 00:29N 58°58' W 003°18'0 0.0
2020-Mar-24 22:59N 58°58' W 003°18'0 0.0
2020-Mar-24 21:29N 58°58' W 003°18'3 2.2
2020-Mar-24 20:00N 58°56' W 003°23'917.7
2020-Mar-24 19:31N 58°48' W 003°31'1019.1
2020-Mar-24 19:00N 58°39' W 003°31'10 7.0
2020-Mar-24 17:31N 58°49' W 003°29'816.2
2020-Mar-24 17:00N 58°57' W 003°23'3 1.9
2020-Mar-24 15:30N 58°58' W 003°18'0 0.0
2020-Mar-24 14:00N 58°58' W 003°18'0 0.0
2020-Mar-24 13:30N 58°58' W 003°18'0 0.0
2020-Mar-24 12:57N 58°58' W 003°18'0 0.1
2020-Mar-24 10:00N 58°58' W 003°18'2214.8
2020-Mar-24 08:30N 58°37' W 003°32'0 0.1
2020-Mar-24 08:00N 58°37' W 003°32'815.6
2020-Mar-24 07:30N 58°44' W 003°31'15 7.3
2020-Mar-24 05:27N 58°58' W 003°18'0 0.0
2020-Mar-24 04:30N 58°58' W 003°18'0 0.0
2020-Mar-24 01:27N 58°58' W 003°18'0 0.0
2020-Mar-24 00:21N 58°58' W 003°18'0 0.0
2020-Mar-23 23:27N 58°58' W 003°18'  

Dump ship's entire track history